3°C Temp
-3°C Dewpoint
% Humidity
Temperature
11 KM/H
7 MPH
6 KTS
10°
Due North

Wind Speed
Clear
Conditions
Pressure 1044.91 (hPa) - 30.86 (in)
Visibility 6.2 (mi) - 10.0 (km)

Current Conditions
EGOV
Location 9(mi)
Metar :EGOV 292050Z AUTO 01006KT 9999 NCD 03/M03 Q1045
Sun 29th March 21:50 pm

Airport
  Metar Aviation API Data Provided by https://www.checkwx.com/ PHP scripts by weather34.com ©2020